Airfield :
LOGIN :

Register | Disclaimer

   EN    FR    IT 

 










Legend :    VFR   Marginal VFR   IFR   Intensive IFR   Very Intensive IFR
Visi :
Ceiling :
>= 8 km
>= 3000ft
5 to 8 km
1000 to 3000 ft
1500m to 5 km
500 to 1000 ft
800 to 1500m
200 to 500 ft
< 800m
< 200 ft
Symbols :   Thunderstorms  Fog  Heavy snow  Heavy precipitations  Wind > 20 kt
SIGMETs :     Misc.  Thunderstorms  Icing  Turbulence  Mountain Waves  Volcanic Ashes







- Airport Elevation : 357 ft
- IATA code : TUF
- Download approach charts


LFOT - Tours

CURRENT METAR :
  • 210600Z AUTO 34003KT 310V020 5000 BR NSC 10/10 Q1017 NOSIG

EXPIRED METARs :
  • 210530Z AUTO 34003KT 4700 BR NSC 10/09 Q1017 NOSIG
  • 210500Z AUTO VRB02KT 4500 BR NSC 09/09 Q1016 TEMPO 0400 FG VV///
  • 210430Z AUTO 34003KT 3700 BR NSC 09/09 Q1016 TEMPO 0400 FG VV///
  • 210400Z AUTO VRB02KT 3800 BR NSC 09/09 Q1016 TEMPO 0400 FG VV///

TAF TAF LFOT
Valid from the 21 at 06:00 until the 22 at 06:00 UTC


210500Z 2106/2206 VRB03KT CAVOK
PROB30
TEMPO 2106/2108 4000 BR
BECMG 2108/2110 SCT025
PROB40
TEMPO 2110/2117 33012KT SHRA SCT025TCU
BECMG 2117/2120 CAVOK
PROB40
TEMPO 2201/2206 2500 BR
PROB30
TEMPO 2203/2206 0400 FG VV///
No reported NOTAMs for that airfield.



MET'MAP, your aeronautical weather chart ! - Copyright ORBIFLY December 2007 - Disclaimer

ORBIFLY MET'MAP TEAM :

Programming & Development : Alexandra Zaïnal
Concept & Development : Baudouin d'Aumeries
Co-Development & Prog : Marc-Olivier Méhu
Technical & hardware support : Manuel Goepfert

Contact : metmap@orbifly.com




SOURCES & CREDITS :

   NOAA